Time;durP1;ratioP1;P1;durP2;ratioP2;P2;SDS_P1;SDS_P2;PMS_P1;PMS_P2;Temp;Humidity;BMP_temperature;BMP_pressure;BME280_temperature;BME280_humidity;BME280_pressure;Samples;Min_cycle;Max_cycle;Signal;HPM_P1;HPM_P2
2023/06/26 00:02:09;;;;;;;8.57;3.20;;;;;;;;;;5054666;28;20112;-67
2023/06/26 00:04:35;;;;;;;4.68;2.72;;;;;;;;;;5052165;28;20440;-68
2023/06/26 00:07:01;;;;;;;12.00;3.10;;;;;;;;;;5053171;28;20052;-72
2023/06/26 00:09:26;;;;;;;4.60;2.55;;;;;;;;;;5060474;28;20325;-73
2023/06/26 00:11:52;;;;;;;4.75;2.60;;;;;;;;;;5062181;28;20491;-71
2023/06/26 00:14:20;;;;;;;6.47;3.05;;;;;;;;;;5054232;28;20400;-72
2023/06/26 00:16:49;;;;;;;6.00;2.67;;;;;;;;;;5053843;28;20025;-73
2023/06/26 00:19:15;;;;;;;7.18;3.22;;;;;;;;;;5054507;28;20100;-73
2023/06/26 00:21:46;;;;;;;5.95;2.45;;;;;;;;;;5054424;28;20068;-72
2023/06/26 00:24:12;;;;;;;5.07;2.63;;;;;;;;;;5051936;28;20033;-72
2023/06/26 00:26:37;;;;;;;9.82;3.15;;;;;;;;;;5051334;28;20420;-73
2023/06/26 00:29:03;;;;;;;5.05;2.58;;;;;;;;;;5053164;28;20512;-73
2023/06/26 00:31:28;;;;;;;8.35;3.20;;;;;;;;;;5054778;28;20104;-73
2023/06/26 00:33:53;;;;;;;7.05;2.70;;;;;;;;;;5051001;28;20029;-73
2023/06/26 00:36:26;;;;;;;5.05;2.67;;;;;;;;;;5052472;28;20108;-73
2023/06/26 00:38:52;;;;;;;7.15;2.95;;;;;;;;;;5054646;28;20416;-73
2023/06/26 00:41:17;;;;;;;8.00;3.47;;;;;;;;;;5062145;28;20035;-73
2023/06/26 00:43:43;;;;;;;4.53;2.75;;;;;;;;;;5056149;28;20060;-71
2023/06/26 00:46:10;;;;;;;7.22;2.83;;;;;;;;;;5051930;28;20021;-72
2023/06/26 00:48:36;;;;;;;9.88;2.92;;;;;;;;;;5056098;28;20056;-73
2023/06/26 00:51:02;;;;;;;4.65;2.58;;;;;;;;;;5061438;28;20032;-73
2023/06/26 00:53:28;;;;;;;5.15;3.03;;;;;;;;;;5056574;28;20104;-73
2023/06/26 00:55:54;;;;;;;8.02;3.30;;;;;;;;;;5053600;28;20380;-74
2023/06/26 00:58:23;;;;;;;8.02;2.38;;;;;;;;;;5051216;28;20056;-73
2023/06/26 01:00:49;;;;;;;5.00;2.33;;;;;;;;;;5055817;28;20048;-74
2023/06/26 01:03:14;;;;;;;7.22;3.05;;;;;;;;;;5052522;28;20163;-74
2023/06/26 01:05:40;;;;;;;7.05;2.90;;;;;;;;;;5059825;28;20037;-74
2023/06/26 01:08:05;;;;;;;5.15;2.47;;;;;;;;;;5059441;28;20074;-73
2023/06/26 01:10:31;;;;;;;6.53;2.80;;;;;;;;;;5054690;28;20036;-73
2023/06/26 01:12:57;;;;;;;6.07;2.67;;;;;;;;;;5050995;28;20108;-74
2023/06/26 01:15:23;;;;;;;5.13;2.45;;;;;;;;;;5051735;28;20029;-73
2023/06/26 01:17:50;;;;;;;3.80;2.40;;;;;;;;;;5053233;28;20036;-74
2023/06/26 01:20:16;;;;;;;6.20;2.70;;;;;;;;;;5057133;28;20025;-73
2023/06/26 01:22:57;;;;;;;5.15;3.08;;;;;;;;;;5057142;28;20032;-73
2023/06/26 01:25:22;;;;;;;;;;;;;;;;;;5053530;28;20472;-72
2023/06/26 01:27:50;;;;;;;3.95;2.22;;;;;;;;;;5057362;28;19966;-73
2023/06/26 01:30:17;;;;;;;5.25;3.22;;;;;;;;;;5053686;28;20029;-73
2023/06/26 01:32:44;;;;;;;6.13;2.90;;;;;;;;;;5050618;28;20073;-73
2023/06/26 01:35:10;;;;;;;7.40;2.60;;;;;;;;;;5056471;28;20108;-73
2023/06/26 01:37:36;;;;;;;6.55;2.90;;;;;;;;;;5053377;28;20028;-71
2023/06/26 01:40:01;;;;;;;5.20;2.75;;;;;;;;;;5052792;28;20037;-74
2023/06/26 01:42:27;;;;;;;8.63;2.97;;;;;;;;;;5051011;28;20044;-73
2023/06/26 01:44:57;;;;;;;6.75;3.40;;;;;;;;;;5050297;28;20025;-72
2023/06/26 01:47:26;;;;;;;6.88;2.85;;;;;;;;;;5053086;28;20043;-70
2023/06/26 01:50:00;;;;;;;7.45;2.85;;;;;;;;;;5056323;28;20021;-73
2023/06/26 01:52:43;;;;;;;3.55;2.30;;;;;;;;;;5055921;28;20419;-72
2023/06/26 01:55:33;;;;;;;5.45;2.83;;;;;;;;;;5050047;28;20420;-68
2023/06/26 01:57:59;;;;;;;8.13;3.17;;;;;;;;;;5051061;28;20035;-71
2023/06/26 02:00:26;;;;;;;4.95;2.53;;;;;;;;;;5050479;28;20025;-72
2023/06/26 02:02:52;;;;;;;4.25;2.42;;;;;;;;;;5053358;28;20029;-74
2023/06/26 02:05:18;;;;;;;6.95;2.50;;;;;;;;;;5050057;28;20040;-72
2023/06/26 02:07:43;;;;;;;5.57;2.53;;;;;;;;;;5052422;28;20033;-72
2023/06/26 02:10:09;;;;;;;4.25;2.60;;;;;;;;;;5052667;28;20036;-72
2023/06/26 02:12:36;;;;;;;5.18;2.75;;;;;;;;;;5050650;28;20036;-70
2023/06/26 02:15:03;;;;;;;7.65;3.03;;;;;;;;;;5052763;28;20021;-73
2023/06/26 02:17:28;;;;;;;6.13;2.42;;;;;;;;;;5050992;28;20033;-73
2023/06/26 02:19:54;;;;;;;5.88;2.78;;;;;;;;;;5058567;28;20076;-73
2023/06/26 02:22:19;;;;;;;6.82;3.25;;;;;;;;;;5060353;28;20120;-73
2023/06/26 02:24:45;;;;;;;5.03;2.60;;;;;;;;;;5052820;28;20111;-69
2023/06/26 02:27:10;;;;;;;5.57;2.65;;;;;;;;;;5049799;28;20029;-73
2023/06/26 02:29:36;;;;;;;8.38;3.60;;;;;;;;;;5049504;28;20021;-70
2023/06/26 02:32:02;;;;;;;6.53;2.75;;;;;;;;;;5052700;28;20047;-73
2023/06/26 02:34:27;;;;;;;5.30;2.90;;;;;;;;;;5054906;28;20029;-73
2023/06/26 02:36:56;;;;;;;5.22;2.80;;;;;;;;;;5060760;28;20225;-70
2023/06/26 02:39:22;;;;;;;8.10;3.15;;;;;;;;;;5053188;28;20028;-73
2023/06/26 02:41:47;;;;;;;4.22;2.80;;;;;;;;;;5052390;28;20040;-70
2023/06/26 02:44:14;;;;;;;4.93;2.78;;;;;;;;;;5052682;28;20025;-73
2023/06/26 02:46:40;;;;;;;8.68;3.13;;;;;;;;;;5050898;28;20025;-73
2023/06/26 02:49:05;;;;;;;6.57;2.70;;;;;;;;;;5049670;28;20057;-73
2023/06/26 02:51:33;;;;;;;6.65;2.58;;;;;;;;;;5050364;28;20055;-74
2023/06/26 02:53:58;;;;;;;8.57;2.97;;;;;;;;;;5050953;28;20054;-73
2023/06/26 02:56:23;;;;;;;6.10;3.30;;;;;;;;;;5051039;28;20509;-73
2023/06/26 02:58:49;;;;;;;6.60;3.17;;;;;;;;;;5050580;28;20401;-70
2023/06/26 03:01:14;;;;;;;8.40;3.10;;;;;;;;;;5050677;28;20027;-70
2023/06/26 03:03:41;;;;;;;10.55;2.97;;;;;;;;;;5051698;28;20101;-72
2023/06/26 03:06:07;;;;;;;7.05;2.65;;;;;;;;;;5059373;28;20075;-74
2023/06/26 03:08:35;;;;;;;4.47;2.60;;;;;;;;;;5051580;28;20036;-72
2023/06/26 03:11:00;;;;;;;7.53;3.47;;;;;;;;;;5052879;28;20025;-73
2023/06/26 03:13:25;;;;;;;5.00;3.00;;;;;;;;;;5052350;28;20033;-72
2023/06/26 03:15:51;;;;;;;10.27;3.05;;;;;;;;;;5053276;28;20040;-73
2023/06/26 03:18:16;;;;;;;5.15;2.90;;;;;;;;;;5049668;28;20028;-73
2023/06/26 03:20:41;;;;;;;5.60;2.97;;;;;;;;;;5054245;28;20096;-71
2023/06/26 03:23:07;;;;;;;7.00;3.15;;;;;;;;;;5052386;28;20493;-71
2023/06/26 03:25:32;;;;;;;6.00;3.00;;;;;;;;;;5056059;28;20060;-73
2023/06/26 03:27:58;;;;;;;6.40;2.83;;;;;;;;;;5051682;28;20032;-74
2023/06/26 03:30:23;;;;;;;7.65;3.10;;;;;;;;;;5050788;28;20025;-73
2023/06/26 03:32:48;;;;;;;5.55;2.97;;;;;;;;;;5049057;28;20049;-74
2023/06/26 03:35:14;;;;;;;7.47;3.03;;;;;;;;;;5050199;28;20269;-73
2023/06/26 03:37:40;;;;;;;10.65;2.78;;;;;;;;;;5049373;28;20025;-74
2023/06/26 03:40:06;;;;;;;6.95;2.72;;;;;;;;;;5050004;28;20080;-73
2023/06/26 03:42:32;;;;;;;9.20;2.95;;;;;;;;;;5050994;28;20025;-73
2023/06/26 03:44:57;;;;;;;5.57;2.58;;;;;;;;;;5049354;28;20420;-74
2023/06/26 03:47:23;;;;;;;5.18;2.75;;;;;;;;;;5050586;28;20021;-72
2023/06/26 03:49:48;;;;;;;7.72;3.25;;;;;;;;;;5053751;28;20013;-73
2023/06/26 03:52:13;;;;;;;6.65;2.72;;;;;;;;;;5056787;28;20021;-74
2023/06/26 03:54:39;;;;;;;5.28;2.75;;;;;;;;;;5048982;28;20116;-74
2023/06/26 03:57:04;;;;;;;5.20;2.95;;;;;;;;;;5050547;28;20392;-73
2023/06/26 03:59:30;;;;;;;5.68;2.83;;;;;;;;;;5048643;28;20025;-73
2023/06/26 04:01:56;;;;;;;7.30;3.63;;;;;;;;;;5050013;28;20107;-73
2023/06/26 04:04:21;;;;;;;6.03;2.65;;;;;;;;;;5052296;28;20025;-74
2023/06/26 04:06:47;;;;;;;9.15;2.88;;;;;;;;;;5053438;28;20024;-72
2023/06/26 04:09:12;;;;;;;6.00;2.72;;;;;;;;;;5051884;28;20504;-74
2023/06/26 04:11:38;;;;;;;5.75;2.75;;;;;;;;;;5057242;28;20025;-74
2023/06/26 04:14:03;;;;;;;5.95;2.95;;;;;;;;;;5052649;28;20053;-73
2023/06/26 04:16:28;;;;;;;5.85;3.13;;;;;;;;;;5052802;28;20374;-74
2023/06/26 04:18:56;;;;;;;7.30;2.80;;;;;;;;;;5054301;28;20021;-72
2023/06/26 04:21:24;;;;;;;7.53;2.92;;;;;;;;;;5062481;28;20107;-71
2023/06/26 04:23:50;;;;;;;7.65;2.67;;;;;;;;;;5058760;28;20435;-72
2023/06/26 04:26:16;;;;;;;4.78;2.80;;;;;;;;;;5055970;28;20124;-73
2023/06/26 04:28:42;;;;;;;4.10;2.40;;;;;;;;;;5054904;28;20024;-73
2023/06/26 04:31:08;;;;;;;5.18;2.92;;;;;;;;;;5055761;28;20029;-74
2023/06/26 04:33:35;;;;;;;6.00;2.80;;;;;;;;;;5053420;28;20187;-68
2023/06/26 04:36:03;;;;;;;6.63;2.72;;;;;;;;;;5051372;28;20051;-74
2023/06/26 04:38:28;;;;;;;6.43;2.97;;;;;;;;;;5051738;28;20045;-76
2023/06/26 04:40:54;;;;;;;8.02;3.13;;;;;;;;;;5061446;28;20091;-73
2023/06/26 04:43:19;;;;;;;7.47;2.88;;;;;;;;;;5061364;28;20051;-73
2023/06/26 04:45:44;;;;;;;6.88;3.03;;;;;;;;;;5062215;28;20032;-72
2023/06/26 04:48:10;;;;;;;5.45;2.55;;;;;;;;;;5061739;28;20039;-74
2023/06/26 04:50:35;;;;;;;5.32;2.70;;;;;;;;;;5062655;28;20032;-73
2023/06/26 04:53:02;;;;;;;5.45;2.80;;;;;;;;;;5062097;28;20194;-73
2023/06/26 04:55:28;;;;;;;5.97;2.40;;;;;;;;;;5062139;28;20029;-74
2023/06/26 04:57:54;;;;;;;6.85;2.67;;;;;;;;;;5061440;28;20424;-72
2023/06/26 05:00:19;;;;;;;4.68;2.85;;;;;;;;;;5062158;28;20029;-74
2023/06/26 05:02:45;;;;;;;5.38;2.45;;;;;;;;;;5061246;28;20312;-73
2023/06/26 05:05:11;;;;;;;4.72;2.85;;;;;;;;;;5061778;28;20240;-72
2023/06/26 05:07:37;;;;;;;3.53;2.47;;;;;;;;;;5061606;28;20101;-74
2023/06/26 05:10:03;;;;;;;5.43;2.67;;;;;;;;;;5060858;28;20098;-70
2023/06/26 05:12:28;;;;;;;7.07;3.10;;;;;;;;;;5060710;28;20028;-74
2023/06/26 05:14:54;;;;;;;6.10;2.60;;;;;;;;;;5060694;28;20252;-74
2023/06/26 05:17:19;;;;;;;3.80;2.45;;;;;;;;;;5062239;28;20037;-73
2023/06/26 05:19:44;;;;;;;4.82;2.50;;;;;;;;;;5061711;28;20038;-70
2023/06/26 05:22:10;;;;;;;7.10;2.50;;;;;;;;;;5062249;28;20089;-70
2023/06/26 05:24:38;;;;;;;3.50;2.33;;;;;;;;;;5062323;28;20025;-72
2023/06/26 05:27:04;;;;;;;4.97;2.50;;;;;;;;;;5062096;28;20342;-69
2023/06/26 05:29:31;;;;;;;4.82;2.03;;;;;;;;;;5061259;28;20052;-69
2023/06/26 05:31:57;;;;;;;4.53;2.35;;;;;;;;;;5059158;28;20055;-69
2023/06/26 05:34:24;;;;;;;6.95;3.10;;;;;;;;;;5061119;28;20475;-74
2023/06/26 05:36:53;;;;;;;3.92;1.90;;;;;;;;;;5041768;28;20209;-73
2023/06/26 05:39:19;;;;;;;5.40;1.97;;;;;;;;;;5041894;28;20029;-73
2023/06/26 05:41:45;;;;;;;6.40;2.78;;;;;;;;;;5041852;28;20089;-73
2023/06/26 05:44:10;;;;;;;7.72;2.50;;;;;;;;;;5041796;28;20211;-74
2023/06/26 05:46:36;;;;;;;5.43;2.40;;;;;;;;;;5041499;28;20183;-74
2023/06/26 05:49:01;;;;;;;4.97;2.13;;;;;;;;;;5041062;28;20036;-74
2023/06/26 05:51:28;;;;;;;6.35;2.35;;;;;;;;;;5040561;28;20256;-74
2023/06/26 05:53:53;;;;;;;3.63;2.08;;;;;;;;;;5040839;28;20033;-73
2023/06/26 05:56:19;;;;;;;3.25;2.00;;;;;;;;;;5041423;28;20041;-73
2023/06/26 05:58:45;;;;;;;4.85;2.50;;;;;;;;;;5041592;28;20206;-77
2023/06/26 06:01:11;;;;;;;9.18;2.30;;;;;;;;;;5041614;28;20075;-66
2023/06/26 06:03:37;;;;;;;9.43;2.58;;;;;;;;;;5041257;28;20021;-73
2023/06/26 06:06:03;;;;;;;7.07;2.08;;;;;;;;;;5041440;28;20131;-74
2023/06/26 06:08:28;;;;;;;3.15;1.92;;;;;;;;;;5040758;28;20033;-74
2023/06/26 06:10:54;;;;;;;4.05;2.40;;;;;;;;;;5041026;28;20087;-74
2023/06/26 06:13:19;;;;;;;5.63;1.92;;;;;;;;;;5041411;28;20425;-74
2023/06/26 06:15:45;;;;;;;5.15;2.60;;;;;;;;;;5041460;28;20040;-73
2023/06/26 06:18:10;;;;;;;2.95;2.10;;;;;;;;;;5041286;28;20104;-74
2023/06/26 06:20:35;;;;;;;6.40;2.25;;;;;;;;;;5041293;28;20021;-74
2023/06/26 06:23:01;;;;;;;6.80;2.45;;;;;;;;;;5041111;28;20048;-74
2023/06/26 06:25:26;;;;;;;3.88;2.20;;;;;;;;;;5041134;28;20026;-73
2023/06/26 06:27:52;;;;;;;5.28;2.03;;;;;;;;;;5040802;28;20313;-75
2023/06/26 06:30:17;;;;;;;5.45;2.03;;;;;;;;;;5039832;28;20033;-73
2023/06/26 06:32:43;;;;;;;3.67;2.20;;;;;;;;;;5040619;28;20033;-74
2023/06/26 06:35:09;;;;;;;4.75;2.35;;;;;;;;;;5049273;28;20040;-74
2023/06/26 06:37:38;;;;;;;8.55;2.15;;;;;;;;;;5080616;28;20024;-75
2023/06/26 06:40:06;;;;;;;3.95;2.13;;;;;;;;;;5070029;28;20025;-74
2023/06/26 06:42:32;;;;;;;4.45;2.10;;;;;;;;;;5080929;28;20024;-75
2023/06/26 06:44:57;;;;;;;5.60;2.10;;;;;;;;;;5078586;28;20083;-75
2023/06/26 06:47:23;;;;;;;4.82;2.08;;;;;;;;;;5080788;28;20053;-74
2023/06/26 06:49:48;;;;;;;4.82;2.17;;;;;;;;;;5080707;28;20032;-74
2023/06/26 06:52:13;;;;;;;5.13;2.22;;;;;;;;;;5079950;28;20035;-74
2023/06/26 06:54:58;;;;;;;3.78;1.95;;;;;;;;;;5080393;28;20020;-73
2023/06/26 06:57:24;;;;;;;6.38;2.65;;;;;;;;;;5080103;28;20027;-75
2023/06/26 06:59:49;;;;;;;3.97;2.25;;;;;;;;;;5080038;28;20032;-75
2023/06/26 07:02:18;;;;;;;3.90;2.17;;;;;;;;;;5080050;28;20020;-74
2023/06/26 07:04:43;;;;;;;6.05;2.15;;;;;;;;;;5080103;28;20038;-70
2023/06/26 07:07:09;;;;;;;3.60;1.83;;;;;;;;;;5080687;28;20024;-71
2023/06/26 07:09:35;;;;;;;4.13;2.13;;;;;;;;;;5080007;28;20067;-74
2023/06/26 07:12:00;;;;;;;4.47;2.05;;;;;;;;;;5080066;28;20083;-74
2023/06/26 07:14:26;;;;;;;5.30;1.83;;;;;;;;;;5080484;28;20020;-74
2023/06/26 07:16:51;;;;;;;4.38;2.13;;;;;;;;;;5080381;28;20028;-75
2023/06/26 07:19:16;;;;;;;3.63;2.20;;;;;;;;;;5080481;28;20059;-74
2023/06/26 07:21:44;;;;;;;4.45;2.28;;;;;;;;;;5080219;28;20326;-74
2023/06/26 07:24:09;;;;;;;3.28;1.98;;;;;;;;;;5080571;28;20091;-74
2023/06/26 07:26:35;;;;;;;4.63;1.70;;;;;;;;;;5080452;28;20070;-73
2023/06/26 07:29:00;;;;;;;3.30;1.75;;;;;;;;;;5079846;28;20048;-74
2023/06/26 07:31:25;;;;;;;4.38;1.95;;;;;;;;;;5079488;28;20024;-76
2023/06/26 07:33:51;;;;;;;4.72;1.67;;;;;;;;;;5066734;28;20059;-73
2023/06/26 07:36:16;;;;;;;3.97;1.73;;;;;;;;;;5038814;28;20037;-74
2023/06/26 07:38:42;;;;;;;3.90;1.80;;;;;;;;;;5040295;28;20391;-74
2023/06/26 07:41:07;;;;;;;2.58;1.27;;;;;;;;;;5040566;28;20041;-75
2023/06/26 07:43:32;;;;;;;4.88;2.08;;;;;;;;;;5058149;28;20021;-75
2023/06/26 07:46:01;;;;;;;3.78;1.95;;;;;;;;;;5043833;28;20317;-75
2023/06/26 07:48:26;;;;;;;6.07;1.73;;;;;;;;;;5042764;28;20400;-75
2023/06/26 07:50:51;;;;;;;5.47;1.90;;;;;;;;;;5041721;28;20093;-74
2023/06/26 07:53:17;;;;;;;5.53;1.75;;;;;;;;;;5042480;28;20057;-74
2023/06/26 07:55:43;;;;;;;7.75;1.85;;;;;;;;;;5042489;28;20033;-71
2023/06/26 07:58:09;;;;;;;4.32;1.95;;;;;;;;;;5042634;28;20033;-74
2023/06/26 08:00:35;;;;;;;3.35;1.80;;;;;;;;;;5042041;28;20045;-76
2023/06/26 08:03:00;;;;;;;3.95;1.80;;;;;;;;;;5047501;28;20060;-81
2023/06/26 08:05:26;;;;;;;3.35;1.75;;;;;;;;;;5061007;28;20079;-75
2023/06/26 08:07:51;;;;;;;4.45;1.73;;;;;;;;;;5043494;28;20057;-78
2023/06/26 08:10:17;;;;;;;8.18;2.05;;;;;;;;;;5048845;28;20056;-83
2023/06/26 08:12:44;;;;;;;3.10;1.75;;;;;;;;;;5062860;28;20067;-75
2023/06/26 08:15:10;;;;;;;4.28;1.85;;;;;;;;;;5061242;28;20025;-71
2023/06/26 08:17:37;;;;;;;4.70;1.80;;;;;;;;;;5062485;28;20029;-73
2023/06/26 08:20:03;;;;;;;4.80;1.80;;;;;;;;;;5063182;28;20313;-73
2023/06/26 08:22:29;;;;;;;2.83;1.70;;;;;;;;;;5052229;28;20257;-74
2023/06/26 08:24:54;;;;;;;2.70;1.80;;;;;;;;;;5060896;28;20309;-68
2023/06/26 08:27:19;;;;;;;3.38;1.80;;;;;;;;;;5043343;28;20025;-75
2023/06/26 08:29:45;;;;;;;2.80;1.55;;;;;;;;;;5047830;28;20052;-75
2023/06/26 08:32:10;;;;;;;4.63;1.95;;;;;;;;;;5062363;28;20078;-75
2023/06/26 08:34:36;;;;;;;4.03;1.90;;;;;;;;;;5062721;28;20056;-75
2023/06/26 08:37:01;;;;;;;4.80;1.80;;;;;;;;;;5063044;28;20055;-75
2023/06/26 08:39:26;;;;;;;3.38;2.00;;;;;;;;;;5048388;28;20049;-74
2023/06/26 08:41:52;;;;;;;4.90;2.00;;;;;;;;;;5041444;28;20443;-74
2023/06/26 08:44:18;;;;;;;3.65;1.98;;;;;;;;;;5042876;28;20083;-74
2023/06/26 08:46:43;;;;;;;4.50;2.00;;;;;;;;;;5043019;28;20432;-75
2023/06/26 08:49:21;;;;;;;3.20;1.83;;;;;;;;;;5041577;28;20079;-74
2023/06/26 08:52:13;;;;;;;2.53;1.50;;;;;;;;;;5042364;28;20040;-75
2023/06/26 08:54:45;;;;;;;3.17;1.90;;;;;;;;;;5041630;28;20074;-72
2023/06/26 08:57:11;;;;;;;3.30;1.70;;;;;;;;;;5042463;28;20112;-76
2023/06/26 08:59:36;;;;;;;4.03;1.80;;;;;;;;;;5036881;28;20036;-76
2023/06/26 09:02:02;;;;;;;2.97;1.58;;;;;;;;;;5030793;28;20030;-66
2023/06/26 09:04:28;;;;;;;5.38;1.95;;;;;;;;;;5031247;28;20110;-72
2023/06/26 09:06:53;;;;;;;3.28;1.60;;;;;;;;;;5030808;28;20109;-72
2023/06/26 09:09:20;;;;;;;4.22;1.65;;;;;;;;;;5031171;28;20083;-72
2023/06/26 09:11:45;;;;;;;2.50;1.50;;;;;;;;;;5030803;28;20393;-77
2023/06/26 09:14:12;;;;;;;4.03;1.67;;;;;;;;;;5031314;28;20618;-79
2023/06/26 09:16:42;;;;;;;5.97;1.80;;;;;;;;;;5031242;28;20561;-77
2023/06/26 09:19:11;;;;;;;3.57;1.40;;;;;;;;;;5037088;28;20018;-77
2023/06/26 09:21:41;;;;;;;4.87;1.90;;;;;;;;;;5033862;28;20045;-89
2023/06/26 09:24:08;;;;;;;3.47;1.47;;;;;;;;;;5033998;28;20033;-76
2023/06/26 09:26:37;;;;;;;3.38;1.73;;;;;;;;;;5034748;28;20321;-76
2023/06/26 09:29:04;;;;;;;2.72;1.63;;;;;;;;;;5039120;28;20029;-77
2023/06/26 09:31:29;;;;;;;4.10;1.67;;;;;;;;;;5039620;28;20092;-76
2023/06/26 09:34:02;;;;;;;5.75;1.80;;;;;;;;;;5037764;28;20025;-77
2023/06/26 09:36:32;;;;;;;2.97;1.60;;;;;;;;;;5045316;28;20123;-71
2023/06/26 09:39:00;;;;;;;3.20;1.70;;;;;;;;;;5051301;28;20336;-76
2023/06/26 09:41:27;;;;;;;3.17;1.75;;;;;;;;;;5071810;28;20020;-75
2023/06/26 09:43:52;;;;;;;3.17;1.67;;;;;;;;;;5062423;28;20070;-74
2023/06/26 09:46:25;;;;;;;4.03;1.92;;;;;;;;;;5070619;28;20236;-66
2023/06/26 09:49:02;;;;;;;5.00;1.65;;;;;;;;;;5078135;28;20296;-77
2023/06/26 09:51:30;;;;;;;5.43;1.73;;;;;;;;;;5072740;28;20029;-75
2023/06/26 09:53:55;;;;;;;10.65;2.55;;;;;;;;;;5074727;28;20028;-76
2023/06/26 09:56:21;;;;;;;12.52;2.35;;;;;;;;;;5068029;28;20039;-75
2023/06/26 09:58:47;;;;;;;4.25;2.10;;;;;;;;;;5068729;28;20036;-75
2023/06/26 10:01:13;;;;;;;3.83;1.70;;;;;;;;;;5068905;28;20186;-76
2023/06/26 10:03:39;;;;;;;4.70;1.73;;;;;;;;;;5070064;28;20029;-76
2023/06/26 10:06:05;;;;;;;4.30;1.67;;;;;;;;;;5076590;28;20095;-75
2023/06/26 10:08:32;;;;;;;6.00;1.85;;;;;;;;;;5070465;28;20021;-76
2023/06/26 10:10:58;;;;;;;5.85;2.00;;;;;;;;;;5051325;28;20112;-64
2023/06/26 10:13:31;;;;;;;4.03;1.67;;;;;;;;;;5067804;28;20024;-74
2023/06/26 10:15:59;;;;;;;5.90;1.88;;;;;;;;;;5074052;28;20084;-77
2023/06/26 10:18:25;;;;;;;3.53;1.65;;;;;;;;;;5067789;28;20053;-69
2023/06/26 10:20:55;;;;;;;2.67;1.80;;;;;;;;;;5070736;28;20464;-76
2023/06/26 10:23:23;;;;;;;4.45;2.03;;;;;;;;;;5073389;28;20033;-77
2023/06/26 10:25:51;;;;;;;3.65;1.90;;;;;;;;;;5080485;28;20044;-76
2023/06/26 10:28:17;;;;;;;2.63;1.70;;;;;;;;;;5078129;28;20028;-81
2023/06/26 10:30:44;;;;;;;3.80;1.80;;;;;;;;;;5055983;28;20021;-76
2023/06/26 10:33:12;;;;;;;2.75;1.98;;;;;;;;;;5069848;28;20052;-77
2023/06/26 10:35:43;;;;;;;2.70;1.48;;;;;;;;;;5073946;28;20082;-77
2023/06/26 10:38:08;;;;;;;3.15;1.77;;;;;;;;;;5072002;28;20013;-76
2023/06/26 10:40:51;;;;;;;2.88;1.55;;;;;;;;;;5069423;28;20028;-77
2023/06/26 10:43:18;;;;;;;5.10;1.90;;;;;;;;;;5076434;28;20215;-78
2023/06/26 10:45:46;;;;;;;5.93;1.98;;;;;;;;;;5077352;28;20091;-76
2023/06/26 10:48:14;;;;;;;5.10;1.70;;;;;;;;;;5064404;28;20024;-76
2023/06/26 10:50:40;;;;;;;3.33;1.83;;;;;;;;;;5079949;28;20048;-74
2023/06/26 10:53:12;;;;;;;3.30;1.50;;;;;;;;;;5078788;28;20082;-76
2023/06/26 10:55:41;;;;;;;8.60;1.80;;;;;;;;;;5079762;28;20359;-74
2023/06/26 10:58:41;;;;;;;2.93;1.83;;;;;;;;;;5076807;28;20047;-76
2023/06/26 11:01:15;;;;;;;2.85;1.70;;;;;;;;;;5079148;28;20104;-76
2023/06/26 11:03:45;;;;;;;4.00;1.73;;;;;;;;;;5075450;28;20048;-76
2023/06/26 11:06:12;;;;;;;2.75;1.58;;;;;;;;;;5078751;28;20029;-72
2023/06/26 11:08:47;;;;;;;3.25;1.90;;;;;;;;;;5079477;28;20032;-76
2023/06/26 11:11:12;;;;;;;3.35;1.40;;;;;;;;;;5071851;28;20033;-77
2023/06/26 11:13:39;;;;;;;4.03;1.88;;;;;;;;;;5072600;28;20091;-76
2023/06/26 11:16:05;;;;;;;4.00;1.73;;;;;;;;;;5054431;28;20051;-76
2023/06/26 11:18:31;;;;;;;2.42;1.50;;;;;;;;;;5063579;28;20029;-77
2023/06/26 11:21:20;;;;;;;2.85;1.67;;;;;;;;;;5071740;28;20029;-69
2023/06/26 11:23:47;;;;;;;3.67;1.50;;;;;;;;;;5072401;28;20040;-76
2023/06/26 11:26:14;;;;;;;3.50;1.77;;;;;;;;;;5083056;28;20025;-76
2023/06/26 11:28:55;;;;;;;2.33;1.40;;;;;;;;;;5082819;28;20104;-78
2023/06/26 11:31:27;;;;;;;;;;;;;;;;;;5055792;28;20041;-79
2023/06/26 11:33:54;;;;;;;2.08;1.33;;;;;;;;;;5083426;28;20206;-75
2023/06/26 11:36:25;;;;;;;2.10;1.13;;;;;;;;;;5081037;28;20217;-76
2023/06/26 11:39:01;;;;;;;1.77;1.13;;;;;;;;;;5070370;28;20028;-75
2023/06/26 11:41:30;;;;;;;1.75;1.10;;;;;;;;;;5080105;28;20028;-76
2023/06/26 11:43:55;;;;;;;2.00;1.27;;;;;;;;;;5063027;28;20053;-71
2023/06/26 11:46:22;;;;;;;2.08;1.38;;;;;;;;;;5076647;28;20378;-76
2023/06/26 11:48:48;;;;;;;2.13;1.35;;;;;;;;;;5075452;28;20241;-76
2023/06/26 11:51:14;;;;;;;2.40;1.67;;;;;;;;;;5045898;28;20075;-78
2023/06/26 11:53:44;;;;;;;2.33;1.33;;;;;;;;;;5049437;28;20031;-77
2023/06/26 11:56:11;;;;;;;3.35;1.85;;;;;;;;;;5063505;28;20028;-76
2023/06/26 11:59:05;;;;;;;3.33;1.50;;;;;;;;;;5064827;28;20032;-69
2023/06/26 12:01:39;;;;;;;4.63;1.60;;;;;;;;;;5059301;28;20481;-78
2023/06/26 12:04:09;;;;;;;2.33;1.42;;;;;;;;;;5029015;28;20037;-73
2023/06/26 12:06:37;;;;;;;3.13;1.58;;;;;;;;;;5034246;28;20383;-77
2023/06/26 12:09:05;;;;;;;3.05;1.35;;;;;;;;;;5038366;28;20221;-75
2023/06/26 12:11:31;;;;;;;2.75;1.60;;;;;;;;;;5031434;28;20029;-76
2023/06/26 12:13:58;;;;;;;3.30;1.65;;;;;;;;;;5045661;28;20063;-74
2023/06/26 12:16:23;;;;;;;3.85;1.55;;;;;;;;;;5050885;28;20104;-76
2023/06/26 12:18:49;;;;;;;3.50;1.88;;;;;;;;;;5057003;28;20113;-72
2023/06/26 12:21:42;;;;;;;3.90;1.73;;;;;;;;;;5049700;28;20619;-74
2023/06/26 12:24:10;;;;;;;3.67;1.75;;;;;;;;;;5050998;28;20078;-81
2023/06/26 12:26:39;;;;;;;5.03;1.58;;;;;;;;;;5052120;28;20033;-74
2023/06/26 12:29:06;;;;;;;3.00;1.63;;;;;;;;;;5049410;28;20060;-75
2023/06/26 12:31:32;;;;;;;2.88;1.90;;;;;;;;;;5050750;28;20108;-75
2023/06/26 12:33:58;;;;;;;4.13;2.00;;;;;;;;;;5051258;28;20542;-77
2023/06/26 12:36:23;;;;;;;5.35;2.05;;;;;;;;;;5050720;28;20112;-80
2023/06/26 12:38:49;;;;;;;4.05;2.00;;;;;;;;;;5049984;28;20393;-77
2023/06/26 12:41:15;;;;;;;3.53;1.65;;;;;;;;;;5052404;28;20031;-76
2023/06/26 12:43:42;;;;;;;8.75;1.85;;;;;;;;;;5050241;28;20037;-77
2023/06/26 12:46:08;;;;;;;2.85;1.75;;;;;;;;;;5050824;28;20029;-75
2023/06/26 12:48:39;;;;;;;2.78;1.58;;;;;;;;;;5050551;28;20021;-77
2023/06/26 12:51:12;;;;;;;3.95;1.85;;;;;;;;;;5050495;28;20063;-74
2023/06/26 12:53:41;;;;;;;3.20;1.58;;;;;;;;;;5050478;28;20044;-73
2023/06/26 12:56:07;;;;;;;4.05;1.92;;;;;;;;;;5050980;28;20024;-78
2023/06/26 12:58:34;;;;;;;3.88;1.80;;;;;;;;;;5042765;28;20041;-76
2023/06/26 13:01:00;;;;;;;4.20;1.58;;;;;;;;;;5039929;28;20021;-74
2023/06/26 13:03:25;;;;;;;6.78;2.17;;;;;;;;;;5045336;28;20036;-73
2023/06/26 13:05:50;;;;;;;3.70;1.70;;;;;;;;;;5050005;28;20033;-74
2023/06/26 13:08:19;;;;;;;3.53;2.08;;;;;;;;;;5029721;28;20618;-71
2023/06/26 13:10:45;;;;;;;3.08;1.85;;;;;;;;;;5030165;28;20149;-74
2023/06/26 13:13:11;;;;;;;5.07;1.85;;;;;;;;;;5030856;28;20505;-74
2023/06/26 13:15:36;;;;;;;2.90;1.67;;;;;;;;;;5040417;28;20028;-74
2023/06/26 13:18:02;;;;;;;2.53;1.55;;;;;;;;;;5050035;28;20025;-75
2023/06/26 13:20:27;;;;;;;3.28;2.00;;;;;;;;;;5052862;28;20473;-75
2023/06/26 13:22:54;;;;;;;3.33;1.52;;;;;;;;;;5052971;28;20084;-77
2023/06/26 13:25:20;;;;;;;4.45;1.70;;;;;;;;;;5049984;28;20053;-74
2023/06/26 13:27:45;;;;;;;3.15;1.85;;;;;;;;;;5051747;28;20090;-74
2023/06/26 13:30:11;;;;;;;2.13;1.35;;;;;;;;;;5049123;28;20029;-76
2023/06/26 13:32:37;;;;;;;3.53;1.45;;;;;;;;;;5049449;28;20539;-76
2023/06/26 13:35:03;;;;;;;3.65;1.52;;;;;;;;;;5049412;28;20528;-73
2023/06/26 13:37:28;;;;;;;2.15;1.50;;;;;;;;;;5049321;28;20029;-75
2023/06/26 13:39:54;;;;;;;2.40;1.60;;;;;;;;;;5049227;28;20017;-75
2023/06/26 13:42:19;;;;;;;2.53;1.73;;;;;;;;;;5049536;28;20028;-75
2023/06/26 13:44:45;;;;;;;2.70;1.52;;;;;;;;;;5053678;28;20021;-75
2023/06/26 13:47:13;;;;;;;4.38;1.55;;;;;;;;;;5052467;28;20403;-74
2023/06/26 13:49:39;;;;;;;4.88;1.90;;;;;;;;;;5050503;28;20024;-72
2023/06/26 13:52:08;;;;;;;2.22;1.50;;;;;;;;;;5048975;28;20037;-73
2023/06/26 13:54:39;;;;;;;3.00;1.60;;;;;;;;;;5049129;28;20031;-65
2023/06/26 13:57:05;;;;;;;2.60;1.60;;;;;;;;;;5049605;28;20032;-76
2023/06/26 13:59:31;;;;;;;3.38;1.83;;;;;;;;;;5047771;28;20033;-78
2023/06/26 14:01:56;;;;;;;3.65;1.40;;;;;;;;;;5049079;28;20114;-72
2023/06/26 14:04:22;;;;;;;2.30;1.48;;;;;;;;;;5048938;28;20060;-74
2023/06/26 14:06:47;;;;;;;4.15;1.52;;;;;;;;;;5048592;28;20036;-70
2023/06/26 14:09:13;;;;;;;4.65;1.88;;;;;;;;;;5048721;28;20060;-69
2023/06/26 14:11:39;;;;;;;2.33;1.55;;;;;;;;;;5048869;28;20037;-69
2023/06/26 14:14:04;;;;;;;3.03;1.90;;;;;;;;;;5048725;28;20442;-74
2023/06/26 14:16:29;;;;;;;2.28;1.40;;;;;;;;;;5049270;28;20021;-74
2023/06/26 14:18:55;;;;;;;4.43;1.67;;;;;;;;;;5048846;28;20043;-78
2023/06/26 14:21:21;;;;;;;4.03;1.92;;;;;;;;;;5049925;28;20033;-73
2023/06/26 14:23:46;;;;;;;3.75;1.60;;;;;;;;;;5048368;28;20465;-88
2023/06/26 14:26:12;;;;;;;3.53;1.50;;;;;;;;;;5048489;28;20025;-73
2023/06/26 14:28:38;;;;;;;6.03;1.60;;;;;;;;;;5046844;28;20017;-72
2023/06/26 14:31:05;;;;;;;3.60;1.65;;;;;;;;;;5063627;28;20523;-73
2023/06/26 14:33:30;;;;;;;5.25;1.45;;;;;;;;;;5067454;28;20106;-79
2023/06/26 14:35:56;;;;;;;4.15;1.40;;;;;;;;;;5066662;28;20527;-73
2023/06/26 14:38:21;;;;;;;1.75;1.10;;;;;;;;;;5072124;28;20571;-74
2023/06/26 14:40:47;;;;;;;3.47;1.48;;;;;;;;;;5061774;28;20381;-75
2023/06/26 14:43:12;;;;;;;1.63;1.20;;;;;;;;;;5068247;28;20027;-74